Storholm — LJBK — position and weather

sailwx.info

Track history (hours):
 
Tides and Currents Weather Stations Pressure Air Temp Water Temp Dewpoint Dewpoint Depression Visibility Wind Speed Wind Dir Waves Ship Positions

Storholm

Last reported at 2017-Oct-21 14:00 UTC. Time now 2017-Oct-22 17:45 UTC.
Position N 71°09' E 030°03'.

Length 22 m; draft 3.8 m.

Type: Fishing. MMSI: 257405500.

Date/timePositionNaut miles runAvg speedWind from/ knotsBaromVisibWave heightAir tempDewpointWater temp
2017-Oct-21 14:00N 71°09' E 030°03'3 6.8
2017-Oct-21 13:30N 71°07' E 029°55'3 6.9
2017-Oct-21 13:00N 71°05' E 029°47'4 7.1
2017-Oct-21 12:30N 71°02' E 029°40'4 7.1
2017-Oct-21 12:00N 70°59' E 029°33'4 7.3
2017-Oct-21 11:30N 70°57' E 029°26'4 7.1
2017-Oct-21 11:00N 70°54' E 029°19'4 7.0
2017-Oct-21 10:30N 70°52' E 029°10'2 3.1
2017-Oct-21 10:00N 70°52' E 029°05'0 0.0
2017-Oct-21 09:30N 70°52' E 029°05'0 0.0
2017-Oct-21 09:00N 70°52' E 029°05'0 0.0
2017-Oct-21 08:30N 70°52' E 029°05'0 0.0
2017-Oct-21 08:00N 70°52' E 029°05'0 0.0
2017-Oct-21 07:30N 70°52' E 029°05'0 0.0
2017-Oct-21 07:00N 70°52' E 029°05'0 0.0
2017-Oct-21 06:30N 70°52' E 029°05'0 0.0
2017-Oct-21 06:00N 70°52' E 029°05'0 0.0
2017-Oct-21 05:30N 70°52' E 029°05'0 0.0
2017-Oct-21 05:00N 70°52' E 029°05'0 0.0
2017-Oct-21 04:30N 70°52' E 029°05'0 0.0
2017-Oct-21 04:00N 70°52' E 029°05'0 0.0
2017-Oct-21 03:31N 70°52' E 029°05'0 0.0
2017-Oct-21 03:00N 70°52' E 029°05'0 0.0
2017-Oct-21 02:30N 70°52' E 029°05'0 0.0
2017-Oct-21 02:00N 70°52' E 029°05'0 0.0
2017-Oct-21 01:30N 70°52' E 029°05'0 0.0
2017-Oct-21 01:00N 70°52' E 029°05'0 0.0
2017-Oct-21 00:30N 70°52' E 029°05'0 0.0
2017-Oct-21 00:00N 70°52' E 029°05'0 0.0
2017-Oct-20 23:30N 70°52' E 029°05'0 0.0
2017-Oct-20 23:00N 70°52' E 029°05'0 0.0
2017-Oct-20 22:30N 70°52' E 029°05'0 0.0
2017-Oct-20 22:00N 70°52' E 029°05'0 0.0
2017-Oct-20 21:30N 70°52' E 029°05'0 0.0
2017-Oct-20 21:00N 70°52' E 029°05'0 0.0
2017-Oct-20 20:30N 70°52' E 029°05'0 0.0
2017-Oct-20 19:59N 70°52' E 029°05'0 0.0
2017-Oct-20 19:30N 70°52' E 029°05'0 0.0
2017-Oct-20 19:00N 70°52' E 029°05'0 0.0
2017-Oct-20 18:30N 70°52' E 029°05'0 0.0
2017-Oct-20 18:00N 70°52' E 029°05'0 0.0
2017-Oct-20 17:30N 70°52' E 029°05'0 0.0
2017-Oct-20 17:00N 70°52' E 029°05'0 0.0
2017-Oct-20 16:30N 70°52' E 029°05'0 0.0
2017-Oct-20 16:00N 70°52' E 029°05'0 0.0
2017-Oct-20 15:30N 70°52' E 029°05'0 0.0
2017-Oct-20 15:00N 70°52' E 029°05'0 0.0
2017-Oct-20 14:00N 70°52' E 029°05'0 0.0
2017-Oct-20 13:30N 70°52' E 029°05'0 0.0
2017-Oct-20 13:00N 70°52' E 029°05'0 0.0
2017-Oct-20 12:31N 70°52' E 029°05'0 0.0
2017-Oct-20 12:00N 70°52' E 029°05'0 0.0
2017-Oct-20 11:30N 70°52' E 029°05'0 0.0
2017-Oct-20 11:00N 70°52' E 029°05'0 0.0
2017-Oct-20 10:30N 70°52' E 029°05'0 0.0
2017-Oct-20 10:00N 70°52' E 029°05'0 0.0
2017-Oct-20 09:30N 70°52' E 029°05'0 0.0
2017-Oct-20 09:00N 70°52' E 029°05'0 0.0
2017-Oct-20 08:30N 70°52' E 029°05'0 0.0
2017-Oct-20 08:00N 70°52' E 029°05'0 0.0
2017-Oct-20 07:30N 70°52' E 029°05'0 0.0
2017-Oct-20 07:00N 70°52' E 029°05'0 0.0
2017-Oct-20 06:30N 70°52' E 029°05'0 0.0
2017-Oct-20 06:00N 70°52' E 029°05'0 0.0
2017-Oct-20 05:30N 70°52' E 029°05'0 0.0
2017-Oct-20 05:00N 70°52' E 029°05'0 0.0
2017-Oct-20 04:30N 70°52' E 029°05'0 0.0
2017-Oct-20 04:00N 70°52' E 029°05'0 0.0
2017-Oct-20 03:30N 70°52' E 029°05'0 0.0
2017-Oct-20 03:00N 70°52' E 029°05'0 0.0
2017-Oct-20 02:30N 70°52' E 029°05'0 0.0
2017-Oct-20 02:00N 70°52' E 029°05'0 0.0
2017-Oct-20 01:30N 70°52' E 029°05'0 0.0
2017-Oct-20 01:00N 70°52' E 029°05'0 0.0
2017-Oct-20 00:30N 70°52' E 029°05'0 0.0
2017-Oct-20 00:01N 70°52' E 029°05'0 0.0
2017-Oct-19 23:30N 70°52' E 029°05'0 0.0
2017-Oct-19 23:00N 70°52' E 029°05'0 0.0
2017-Oct-19 22:30N 70°52' E 029°05'0 0.0
2017-Oct-19 22:00N 70°52' E 029°05'0 0.0
2017-Oct-19 21:30N 70°52' E 029°05'0 0.0
2017-Oct-19 21:00N 70°52' E 029°05'0 0.0
2017-Oct-19 20:30N 70°52' E 029°05'0 0.0
2017-Oct-19 20:01N 70°52' E 029°05'0 0.0
2017-Oct-19 19:30N 70°52' E 029°05'0 0.0
2017-Oct-19 19:00N 70°52' E 029°05'0 0.0
2017-Oct-19 18:30N 70°52' E 029°05'0 0.0
2017-Oct-19 18:00N 70°52' E 029°05'0 0.0
2017-Oct-19 17:30N 70°52' E 029°05'3 6.4
2017-Oct-19 17:00N 70°53' E 029°14'4 7.9
2017-Oct-19 16:30N 70°55' E 029°24'4 7.7
2017-Oct-19 16:00N 70°57' E 029°35'4 8.1
2017-Oct-19 15:30N 70°59' E 029°45'4 7.8
2017-Oct-19 15:00N 71°01' E 029°55'4 7.6
2017-Oct-19 14:30N 71°04' E 030°03'4 7.7
2017-Oct-19 14:00N 71°07' E 030°12'9 0.2
2017-Oct-17 15:13N 71°01' E 030°32'1 6.8
2017-Oct-17 15:00N 71°00' E 030°28'3 7.0
2017-Oct-17 14:30N 70°59' E 030°18'4 7.0
2017-Oct-17 14:00N 70°58' E 030°08'3 6.8
2017-Oct-17 13:30N 70°57' E 029°58'3 6.8
2017-Oct-17 13:00N 70°56' E 029°48'3 7.0
2017-Oct-17 12:30N 70°55' E 029°38'4 7.2
2017-Oct-17 12:00N 70°54' E 029°27'4 7.3
2017-Oct-17 11:30N 70°53' E 029°16'3 6.9
2017-Oct-17 11:00N 70°51' E 029°07'0 0.1
2017-Oct-17 10:30N 70°51' E 029°07'0 0.9
2017-Oct-17 10:00N 70°52' E 029°05'0 0.0
2017-Oct-17 09:30N 70°52' E 029°05'0 0.0
2017-Oct-17 09:00N 70°52' E 029°05'0 0.0
2017-Oct-17 08:30N 70°52' E 029°05'0 0.0
2017-Oct-17 08:00N 70°52' E 029°05'0 0.0
2017-Oct-17 07:30N 70°52' E 029°05'0 0.0
2017-Oct-17 07:00N 70°52' E 029°05'0 0.0
2017-Oct-17 06:31N 70°52' E 029°05'0 0.0
2017-Oct-17 06:00N 70°52' E 029°05'0 0.0
2017-Oct-17 05:30N 70°52' E 029°05'0 0.0
2017-Oct-17 05:01N 70°52' E 029°05'0 0.0
2017-Oct-17 04:30N 70°52' E 029°05'0 0.0
2017-Oct-17 04:00N 70°52' E 029°05'0 0.0
2017-Oct-17 03:31N 70°52' E 029°05'0 0.0
2017-Oct-17 03:00N 70°52' E 029°05'0 0.0
2017-Oct-17 02:30N 70°52' E 029°05'0 0.0
2017-Oct-17 02:00N 70°52' E 029°05'0 0.0
2017-Oct-17 01:30N 70°52' E 029°05'0 0.0
2017-Oct-17 01:00N 70°52' E 029°05'0 0.0
2017-Oct-17 00:30N 70°52' E 029°05'0 0.0
2017-Oct-17 00:00N 70°52' E 029°05'0 0.0
2017-Oct-16 23:30N 70°52' E 029°05'0 0.0
2017-Oct-16 23:01N 70°52' E 029°05'0 0.0
2017-Oct-16 22:30N 70°52' E 029°05'0 0.0
2017-Oct-16 22:00N 70°52' E 029°05'0 0.0
2017-Oct-16 21:30N 70°52' E 029°05'0 0.0
2017-Oct-16 21:00N 70°52' E 029°05'0 0.0
2017-Oct-16 20:31N 70°52' E 029°05'0 0.0
2017-Oct-16 20:01N 70°52' E 029°05'0 0.0
2017-Oct-16 19:30N 70°52' E 029°05'0 0.0
2017-Oct-16 19:01N 70°52' E 029°05'0 0.0
2017-Oct-16 18:31N 70°52' E 029°05'0 0.0
2017-Oct-16 18:00N 70°52' E 029°05'0 0.0
2017-Oct-16 17:30N 70°52' E 029°05'0 0.0
2017-Oct-16 17:00N 70°52' E 029°05'0 0.0
2017-Oct-16 16:30N 70°52' E 029°05'0 0.0
2017-Oct-16 16:00N 70°52' E 029°05'0 0.0
2017-Oct-16 15:29N 70°52' E 029°05'0 0.0
2017-Oct-16 15:01N 70°52' E 029°05'0 0.0
2017-Oct-16 14:00N 70°52' E 029°05'0 0.0
2017-Oct-16 13:30N 70°52' E 029°05'0 0.0
2017-Oct-16 13:00N 70°52' E 029°05'0 0.0
2017-Oct-16 12:29N 70°52' E 029°05'0 0.0
2017-Oct-16 12:00N 70°52' E 029°05'0 0.0
2017-Oct-16 11:30N 70°52' E 029°05'0 0.0
2017-Oct-16 11:01N 70°52' E 029°05'0 0.0
2017-Oct-16 10:30N 70°52' E 029°05'0 0.0
2017-Oct-16 10:00N 70°52' E 029°05'0 0.0
2017-Oct-16 09:30N 70°52' E 029°05'0 0.0
2017-Oct-16 09:00N 70°52' E 029°05'0 0.0
2017-Oct-16 08:30N 70°52' E 029°05'0 0.0
2017-Oct-16 08:01N 70°52' E 029°05'0 0.0
2017-Oct-16 07:31N 70°52' E 029°05'0 0.0
2017-Oct-16 07:00N 70°52' E 029°05'0 0.0
2017-Oct-16 06:30N 70°52' E 029°05'0 0.0
2017-Oct-16 06:00N 70°52' E 029°05'0 0.0
2017-Oct-16 05:30N 70°52' E 029°05'0 0.0
2017-Oct-16 05:00N 70°52' E 029°05'0 0.0
2017-Oct-16 04:30N 70°52' E 029°05'0 0.0
2017-Oct-16 04:00N 70°52' E 029°05'0 0.0
2017-Oct-16 03:30N 70°52' E 029°05'0 0.0
2017-Oct-16 03:00N 70°52' E 029°05'0 0.0
2017-Oct-16 02:30N 70°52' E 029°05'0 0.0
2017-Oct-16 02:00N 70°52' E 029°05'0 0.0
2017-Oct-16 01:30N 70°52' E 029°05'0 0.0
2017-Oct-16 01:00N 70°52' E 029°05'0 0.0
2017-Oct-16 00:30N 70°52' E 029°05'0 0.0
2017-Oct-16 00:00N 70°52' E 029°05'0 0.0
2017-Oct-15 23:30N 70°52' E 029°05'0 0.0
2017-Oct-15 23:00N 70°52' E 029°05'0 0.0
2017-Oct-15 22:30N 70°52' E 029°05'0 0.0
2017-Oct-15 22:00N 70°52' E 029°05'0 0.0
2017-Oct-15 21:31N 70°52' E 029°05'0 0.0
2017-Oct-15 21:00N 70°52' E 029°05'0 0.0
2017-Oct-15 20:30N 70°52' E 029°05'0 0.0
2017-Oct-15 20:00N 70°52' E 029°05'0 0.0
2017-Oct-15 19:31N 70°52' E 029°05'0 0.0
2017-Oct-15 19:00N 70°52' E 029°05'0 0.0
2017-Oct-15 18:30N 70°52' E 029°05'2 4.1
2017-Oct-15 18:00N 70°53' E 029°11'4 8.3
2017-Oct-15 17:30N 70°55' E 029°21'4 8.3
2017-Oct-15 17:00N 70°57' E 029°33'4 8.3
2017-Oct-15 16:30N 70°58' E 029°45'4 7.8
2017-Oct-15 16:00N 70°59' E 029°56'4 7.3
2017-Oct-15 15:30N 71°00' E 030°07'4 7.5
2017-Oct-15 15:00N 71°01' E 030°18'5 0.1
2017-Oct-13 19:37N 71°01' E 030°32'1 8.3
2017-Oct-13 19:30N 71°01' E 030°29'4 8.5
2017-Oct-13 19:00N 70°60' E 030°17'4 8.5
2017-Oct-13 18:30N 70°59' E 030°04'4 8.5
2017-Oct-13 18:00N 70°57' E 029°52'4 8.3
2017-Oct-13 17:31N 70°56' E 029°40'4 7.9
2017-Oct-13 17:00N 70°54' E 029°29'4 7.7
2017-Oct-13 16:30N 70°53' E 029°18'4 7.7
2017-Oct-13 16:00N 70°52' E 029°06'0 0.6
2017-Oct-13 15:30N 70°52' E 029°06'0 0.0
2017-Oct-13 15:00N 70°52' E 029°06'0 0.0
2017-Oct-13 14:30N 70°52' E 029°06'0 0.0
2017-Oct-13 14:00N 70°52' E 029°06'0 0.0
2017-Oct-13 13:30N 70°52' E 029°06'0 0.0
2017-Oct-13 13:00N 70°52' E 029°06'0 0.0
2017-Oct-13 12:30N 70°52' E 029°06'0 0.0
2017-Oct-13 12:00N 70°52' E 029°06'0 0.0
2017-Oct-13 11:30N 70°52' E 029°06'0 0.0
2017-Oct-13 11:00N 70°52' E 029°06'0 0.0
2017-Oct-13 10:30N 70°52' E 029°06'0 0.0
2017-Oct-13 10:00N 70°52' E 029°06'0 0.0
2017-Oct-13 09:31N 70°52' E 029°06'0 0.0
2017-Oct-13 09:00N 70°52' E 029°06'0 0.0
2017-Oct-13 08:30N 70°52' E 029°06'0 0.0
2017-Oct-13 08:01N 70°52' E 029°06'2 1.9
2017-Oct-13 06:52N 70°52' E 029°12'3 7.8
2017-Oct-13 06:30N 70°52' E 029°21'4 8.2
2017-Oct-13 06:00N 70°50' E 029°32'4 8.4
2017-Oct-13 05:30N 70°48' E 029°43'4 8.7
2017-Oct-13 05:00N 70°46' E 029°55'4 8.7
2017-Oct-13 04:30N 70°44' E 030°07'4 8.2
2017-Oct-13 04:00N 70°43' E 030°19'4 8.0
2017-Oct-13 03:29N 70°40' E 030°29'4 8.1
2017-Oct-13 03:00N 70°38' E 030°39'4 8.2
2017-Oct-13 02:31N 70°36' E 030°49'4 8.5
2017-Oct-13 02:01N 70°34' E 031°01'4 8.6
2017-Oct-13 01:29N 70°32' E 031°13'4 8.4
2017-Oct-13 01:00N 70°30' E 031°23'4 8.2
2017-Oct-13 00:30N 70°28' E 031°34'4 8.3
2017-Oct-13 00:00N 70°25' E 031°44'3 0.1
2017-Oct-11 19:45N 70°29' E 031°41'2 7.8
2017-Oct-11 19:30N 70°29' E 031°36'4 7.9
2017-Oct-11 19:00N 70°30' E 031°24'4 7.8
2017-Oct-11 18:30N 70°32' E 031°14'4 8.1
2017-Oct-11 18:00N 70°35' E 031°05'4 7.8
2017-Oct-11 17:30N 70°37' E 030°55'4 7.7
2017-Oct-11 17:00N 70°39' E 030°46'  
Track history (hours):
 
Tides and Currents Weather Stations Pressure Air Temp Water Temp Dewpoint Dewpoint Depression Visibility Wind Speed Wind Dir Waves Ship Positions

Storholm

Last reported at 2017-Oct-21 14:00 UTC. Time now 2017-Oct-22 17:45 UTC.
Position N 71°09' E 030°03'.

Length 22 m; draft 3.8 m.

Type: Fishing. MMSI: 257405500.

Date/timePositionNaut miles runAvg speedWind from/ knotsBaromVisibWave heightAir tempDewpointWater temp
2017-Oct-21 14:00N 71°09' E 030°03'3 6.8
2017-Oct-21 13:30N 71°07' E 029°55'3 6.9
2017-Oct-21 13:00N 71°05' E 029°47'4 7.1
2017-Oct-21 12:30N 71°02' E 029°40'4 7.1
2017-Oct-21 12:00N 70°59' E 029°33'4 7.3
2017-Oct-21 11:30N 70°57' E 029°26'4 7.1
2017-Oct-21 11:00N 70°54' E 029°19'4 7.0
2017-Oct-21 10:30N 70°52' E 029°10'2 3.1
2017-Oct-21 10:00N 70°52' E 029°05'0 0.0
2017-Oct-21 09:30N 70°52' E 029°05'0 0.0
2017-Oct-21 09:00N 70°52' E 029°05'0 0.0
2017-Oct-21 08:30N 70°52' E 029°05'0 0.0
2017-Oct-21 08:00N 70°52' E 029°05'0 0.0
2017-Oct-21 07:30N 70°52' E 029°05'0 0.0
2017-Oct-21 07:00N 70°52' E 029°05'0 0.0
2017-Oct-21 06:30N 70°52' E 029°05'0 0.0
2017-Oct-21 06:00N 70°52' E 029°05'0 0.0
2017-Oct-21 05:30N 70°52' E 029°05'0 0.0
2017-Oct-21 05:00N 70°52' E 029°05'0 0.0
2017-Oct-21 04:30N 70°52' E 029°05'0 0.0
2017-Oct-21 04:00N 70°52' E 029°05'0 0.0
2017-Oct-21 03:31N 70°52' E 029°05'0 0.0
2017-Oct-21 03:00N 70°52' E 029°05'0 0.0
2017-Oct-21 02:30N 70°52' E 029°05'0 0.0
2017-Oct-21 02:00N 70°52' E 029°05'0 0.0
2017-Oct-21 01:30N 70°52' E 029°05'0 0.0
2017-Oct-21 01:00N 70°52' E 029°05'0 0.0
2017-Oct-21 00:30N 70°52' E 029°05'0 0.0
2017-Oct-21 00:00N 70°52' E 029°05'0 0.0
2017-Oct-20 23:30N 70°52' E 029°05'0 0.0
2017-Oct-20 23:00N 70°52' E 029°05'0 0.0
2017-Oct-20 22:30N 70°52' E 029°05'0 0.0
2017-Oct-20 22:00N 70°52' E 029°05'0 0.0
2017-Oct-20 21:30N 70°52' E 029°05'0 0.0
2017-Oct-20 21:00N 70°52' E 029°05'0 0.0
2017-Oct-20 20:30N 70°52' E 029°05'0 0.0
2017-Oct-20 19:59N 70°52' E 029°05'0 0.0
2017-Oct-20 19:30N 70°52' E 029°05'0 0.0
2017-Oct-20 19:00N 70°52' E 029°05'0 0.0
2017-Oct-20 18:30N 70°52' E 029°05'0 0.0
2017-Oct-20 18:00N 70°52' E 029°05'0 0.0
2017-Oct-20 17:30N 70°52' E 029°05'0 0.0
2017-Oct-20 17:00N 70°52' E 029°05'0 0.0
2017-Oct-20 16:30N 70°52' E 029°05'0 0.0
2017-Oct-20 16:00N 70°52' E 029°05'0 0.0
2017-Oct-20 15:30N 70°52' E 029°05'0 0.0
2017-Oct-20 15:00N 70°52' E 029°05'0 0.0
2017-Oct-20 14:00N 70°52' E 029°05'0 0.0
2017-Oct-20 13:30N 70°52' E 029°05'0 0.0
2017-Oct-20 13:00N 70°52' E 029°05'0 0.0
2017-Oct-20 12:31N 70°52' E 029°05'0 0.0
2017-Oct-20 12:00N 70°52' E 029°05'0 0.0
2017-Oct-20 11:30N 70°52' E 029°05'0 0.0
2017-Oct-20 11:00N 70°52' E 029°05'0 0.0
2017-Oct-20 10:30N 70°52' E 029°05'0 0.0
2017-Oct-20 10:00N 70°52' E 029°05'0 0.0
2017-Oct-20 09:30N 70°52' E 029°05'0 0.0
2017-Oct-20 09:00N 70°52' E 029°05'0 0.0
2017-Oct-20 08:30N 70°52' E 029°05'0 0.0
2017-Oct-20 08:00N 70°52' E 029°05'0 0.0
2017-Oct-20 07:30N 70°52' E 029°05'0 0.0
2017-Oct-20 07:00N 70°52' E 029°05'0 0.0
2017-Oct-20 06:30N 70°52' E 029°05'0 0.0
2017-Oct-20 06:00N 70°52' E 029°05'0 0.0
2017-Oct-20 05:30N 70°52' E 029°05'0 0.0
2017-Oct-20 05:00N 70°52' E 029°05'0 0.0
2017-Oct-20 04:30N 70°52' E 029°05'0 0.0
2017-Oct-20 04:00N 70°52' E 029°05'0 0.0
2017-Oct-20 03:30N 70°52' E 029°05'0 0.0
2017-Oct-20 03:00N 70°52' E 029°05'0 0.0
2017-Oct-20 02:30N 70°52' E 029°05'0 0.0
2017-Oct-20 02:00N 70°52' E 029°05'0 0.0
2017-Oct-20 01:30N 70°52' E 029°05'0 0.0
2017-Oct-20 01:00N 70°52' E 029°05'0 0.0
2017-Oct-20 00:30N 70°52' E 029°05'0 0.0
2017-Oct-20 00:01N 70°52' E 029°05'0 0.0
2017-Oct-19 23:30N 70°52' E 029°05'0 0.0
2017-Oct-19 23:00N 70°52' E 029°05'0 0.0
2017-Oct-19 22:30N 70°52' E 029°05'0 0.0
2017-Oct-19 22:00N 70°52' E 029°05'0 0.0
2017-Oct-19 21:30N 70°52' E 029°05'0 0.0
2017-Oct-19 21:00N 70°52' E 029°05'0 0.0
2017-Oct-19 20:30N 70°52' E 029°05'0 0.0
2017-Oct-19 20:01N 70°52' E 029°05'0 0.0
2017-Oct-19 19:30N 70°52' E 029°05'0 0.0
2017-Oct-19 19:00N 70°52' E 029°05'0 0.0
2017-Oct-19 18:30N 70°52' E 029°05'0 0.0
2017-Oct-19 18:00N 70°52' E 029°05'0 0.0
2017-Oct-19 17:30N 70°52' E 029°05'3 6.4
2017-Oct-19 17:00N 70°53' E 029°14'4 7.9
2017-Oct-19 16:30N 70°55' E 029°24'4 7.7
2017-Oct-19 16:00N 70°57' E 029°35'4 8.1
2017-Oct-19 15:30N 70°59' E 029°45'4 7.8
2017-Oct-19 15:00N 71°01' E 029°55'4 7.6
2017-Oct-19 14:30N 71°04' E 030°03'4 7.7
2017-Oct-19 14:00N 71°07' E 030°12'9 0.2
2017-Oct-17 15:13N 71°01' E 030°32'1 6.8
2017-Oct-17 15:00N 71°00' E 030°28'3 7.0
2017-Oct-17 14:30N 70°59' E 030°18'4 7.0
2017-Oct-17 14:00N 70°58' E 030°08'3 6.8
2017-Oct-17 13:30N 70°57' E 029°58'3 6.8
2017-Oct-17 13:00N 70°56' E 029°48'3 7.0
2017-Oct-17 12:30N 70°55' E 029°38'4 7.2
2017-Oct-17 12:00N 70°54' E 029°27'4 7.3
2017-Oct-17 11:30N 70°53' E 029°16'3 6.9
2017-Oct-17 11:00N 70°51' E 029°07'0 0.1
2017-Oct-17 10:30N 70°51' E 029°07'0 0.9
2017-Oct-17 10:00N 70°52' E 029°05'0 0.0
2017-Oct-17 09:30N 70°52' E 029°05'0 0.0
2017-Oct-17 09:00N 70°52' E 029°05'0 0.0
2017-Oct-17 08:30N 70°52' E 029°05'0 0.0
2017-Oct-17 08:00N 70°52' E 029°05'0 0.0
2017-Oct-17 07:30N 70°52' E 029°05'0 0.0
2017-Oct-17 07:00N 70°52' E 029°05'0 0.0
2017-Oct-17 06:31N 70°52' E 029°05'0 0.0
2017-Oct-17 06:00N 70°52' E 029°05'0 0.0
2017-Oct-17 05:30N 70°52' E 029°05'0 0.0
2017-Oct-17 05:01N 70°52' E 029°05'0 0.0
2017-Oct-17 04:30N 70°52' E 029°05'0 0.0
2017-Oct-17 04:00N 70°52' E 029°05'0 0.0
2017-Oct-17 03:31N 70°52' E 029°05'0 0.0
2017-Oct-17 03:00N 70°52' E 029°05'0 0.0
2017-Oct-17 02:30N 70°52' E 029°05'0 0.0
2017-Oct-17 02:00N 70°52' E 029°05'0 0.0
2017-Oct-17 01:30N 70°52' E 029°05'0 0.0
2017-Oct-17 01:00N 70°52' E 029°05'0 0.0
2017-Oct-17 00:30N 70°52' E 029°05'0 0.0
2017-Oct-17 00:00N 70°52' E 029°05'0 0.0
2017-Oct-16 23:30N 70°52' E 029°05'0 0.0
2017-Oct-16 23:01N 70°52' E 029°05'0 0.0
2017-Oct-16 22:30N 70°52' E 029°05'0 0.0
2017-Oct-16 22:00N 70°52' E 029°05'0 0.0
2017-Oct-16 21:30N 70°52' E 029°05'0 0.0
2017-Oct-16 21:00N 70°52' E 029°05'0 0.0
2017-Oct-16 20:31N 70°52' E 029°05'0 0.0
2017-Oct-16 20:01N 70°52' E 029°05'0 0.0
2017-Oct-16 19:30N 70°52' E 029°05'0 0.0
2017-Oct-16 19:01N 70°52' E 029°05'0 0.0
2017-Oct-16 18:31N 70°52' E 029°05'0 0.0
2017-Oct-16 18:00N 70°52' E 029°05'0 0.0
2017-Oct-16 17:30N 70°52' E 029°05'0 0.0
2017-Oct-16 17:00N 70°52' E 029°05'0 0.0
2017-Oct-16 16:30N 70°52' E 029°05'0 0.0
2017-Oct-16 16:00N 70°52' E 029°05'0 0.0
2017-Oct-16 15:29N 70°52' E 029°05'0 0.0
2017-Oct-16 15:01N 70°52' E 029°05'0 0.0
2017-Oct-16 14:00N 70°52' E 029°05'0 0.0
2017-Oct-16 13:30N 70°52' E 029°05'0 0.0
2017-Oct-16 13:00N 70°52' E 029°05'0 0.0
2017-Oct-16 12:29N 70°52' E 029°05'0 0.0
2017-Oct-16 12:00N 70°52' E 029°05'0 0.0
2017-Oct-16 11:30N 70°52' E 029°05'0 0.0
2017-Oct-16 11:01N 70°52' E 029°05'0 0.0
2017-Oct-16 10:30N 70°52' E 029°05'0 0.0
2017-Oct-16 10:00N 70°52' E 029°05'0 0.0
2017-Oct-16 09:30N 70°52' E 029°05'0 0.0
2017-Oct-16 09:00N 70°52' E 029°05'0 0.0
2017-Oct-16 08:30N 70°52' E 029°05'0 0.0
2017-Oct-16 08:01N 70°52' E 029°05'0 0.0
2017-Oct-16 07:31N 70°52' E 029°05'0 0.0
2017-Oct-16 07:00N 70°52' E 029°05'0 0.0
2017-Oct-16 06:30N 70°52' E 029°05'0 0.0
2017-Oct-16 06:00N 70°52' E 029°05'0 0.0
2017-Oct-16 05:30N 70°52' E 029°05'0 0.0
2017-Oct-16 05:00N 70°52' E 029°05'0 0.0
2017-Oct-16 04:30N 70°52' E 029°05'0 0.0
2017-Oct-16 04:00N 70°52' E 029°05'0 0.0
2017-Oct-16 03:30N 70°52' E 029°05'0 0.0
2017-Oct-16 03:00N 70°52' E 029°05'0 0.0
2017-Oct-16 02:30N 70°52' E 029°05'0 0.0
2017-Oct-16 02:00N 70°52' E 029°05'0 0.0
2017-Oct-16 01:30N 70°52' E 029°05'0 0.0
2017-Oct-16 01:00N 70°52' E 029°05'0 0.0
2017-Oct-16 00:30N 70°52' E 029°05'0 0.0
2017-Oct-16 00:00N 70°52' E 029°05'0 0.0
2017-Oct-15 23:30N 70°52' E 029°05'0 0.0
2017-Oct-15 23:00N 70°52' E 029°05'0 0.0
2017-Oct-15 22:30N 70°52' E 029°05'0 0.0
2017-Oct-15 22:00N 70°52' E 029°05'0 0.0
2017-Oct-15 21:31N 70°52' E 029°05'0 0.0
2017-Oct-15 21:00N 70°52' E 029°05'0 0.0
2017-Oct-15 20:30N 70°52' E 029°05'0 0.0
2017-Oct-15 20:00N 70°52' E 029°05'0 0.0
2017-Oct-15 19:31N 70°52' E 029°05'0 0.0
2017-Oct-15 19:00N 70°52' E 029°05'0 0.0
2017-Oct-15 18:30N 70°52' E 029°05'2 4.1
2017-Oct-15 18:00N 70°53' E 029°11'4 8.3
2017-Oct-15 17:30N 70°55' E 029°21'4 8.3
2017-Oct-15 17:00N 70°57' E 029°33'4 8.3
2017-Oct-15 16:30N 70°58' E 029°45'4 7.8
2017-Oct-15 16:00N 70°59' E 029°56'4 7.3
2017-Oct-15 15:30N 71°00' E 030°07'4 7.5
2017-Oct-15 15:00N 71°01' E 030°18'5 0.1
2017-Oct-13 19:37N 71°01' E 030°32'1 8.3
2017-Oct-13 19:30N 71°01' E 030°29'4 8.5
2017-Oct-13 19:00N 70°60' E 030°17'4 8.5
2017-Oct-13 18:30N 70°59' E 030°04'4 8.5
2017-Oct-13 18:00N 70°57' E 029°52'4 8.3
2017-Oct-13 17:31N 70°56' E 029°40'4 7.9
2017-Oct-13 17:00N 70°54' E 029°29'4 7.7
2017-Oct-13 16:30N 70°53' E 029°18'4 7.7
2017-Oct-13 16:00N 70°52' E 029°06'0 0.6
2017-Oct-13 15:30N 70°52' E 029°06'0 0.0
2017-Oct-13 15:00N 70°52' E 029°06'0 0.0
2017-Oct-13 14:30N 70°52' E 029°06'0 0.0
2017-Oct-13 14:00N 70°52' E 029°06'0 0.0
2017-Oct-13 13:30N 70°52' E 029°06'0 0.0
2017-Oct-13 13:00N 70°52' E 029°06'0 0.0
2017-Oct-13 12:30N 70°52' E 029°06'0 0.0
2017-Oct-13 12:00N 70°52' E 029°06'0 0.0
2017-Oct-13 11:30N 70°52' E 029°06'0 0.0
2017-Oct-13 11:00N 70°52' E 029°06'0 0.0
2017-Oct-13 10:30N 70°52' E 029°06'0 0.0
2017-Oct-13 10:00N 70°52' E 029°06'0 0.0
2017-Oct-13 09:31N 70°52' E 029°06'0 0.0
2017-Oct-13 09:00N 70°52' E 029°06'0 0.0
2017-Oct-13 08:30N 70°52' E 029°06'0 0.0
2017-Oct-13 08:01N 70°52' E 029°06'2 1.9
2017-Oct-13 06:52N 70°52' E 029°12'3 7.8
2017-Oct-13 06:30N 70°52' E 029°21'4 8.2
2017-Oct-13 06:00N 70°50' E 029°32'4 8.4
2017-Oct-13 05:30N 70°48' E 029°43'4 8.7
2017-Oct-13 05:00N 70°46' E 029°55'4 8.7
2017-Oct-13 04:30N 70°44' E 030°07'4 8.2
2017-Oct-13 04:00N 70°43' E 030°19'4 8.0
2017-Oct-13 03:29N 70°40' E 030°29'4 8.1
2017-Oct-13 03:00N 70°38' E 030°39'4 8.2
2017-Oct-13 02:31N 70°36' E 030°49'4 8.5
2017-Oct-13 02:01N 70°34' E 031°01'4 8.6
2017-Oct-13 01:29N 70°32' E 031°13'4 8.4
2017-Oct-13 01:00N 70°30' E 031°23'4 8.2
2017-Oct-13 00:30N 70°28' E 031°34'4 8.3
2017-Oct-13 00:00N 70°25' E 031°44'3 0.1
2017-Oct-11 19:45N 70°29' E 031°41'2 7.8
2017-Oct-11 19:30N 70°29' E 031°36'4 7.9
2017-Oct-11 19:00N 70°30' E 031°24'4 7.8
2017-Oct-11 18:30N 70°32' E 031°14'4 8.1
2017-Oct-11 18:00N 70°35' E 031°05'4 7.8
2017-Oct-11 17:30N 70°37' E 030°55'4 7.7
2017-Oct-11 17:00N 70°39' E 030°46'  

Dump ship's entire track history